Time;durP1;ratioP1;P1;durP2;ratioP2;P2;SDS_P1;SDS_P2;PMS_P1;PMS_P2;Temp;Humidity;BMP_temperature;BMP_pressure;BME280_temperature;BME280_humidity;BME280_pressure;Samples;Min_cycle;Max_cycle;Signal;HPM_P1;HPM_P2
2022/08/08 00:01:53;;;;;;;6.97;3.42;;;;;;;15.99;100.00;102528.00;5073790;28;20024;-71
2022/08/08 00:04:35;;;;;;;9.43;3.22;;;;;;;15.93;100.00;102526.97;5073695;28;20479;-72
2022/08/08 00:07:36;;;;;;;6.30;3.17;;;;;;;15.95;100.00;102527.88;5073606;28;20027;-71
2022/08/08 00:10:12;;;;;;;7.70;3.22;;;;;;;15.98;100.00;102527.97;5073608;28;20478;-71
2022/08/08 00:12:46;;;;;;;6.85;3.35;;;;;;;15.98;100.00;102533.28;5073745;28;20098;-71
2022/08/08 00:15:16;;;;;;;4.35;2.97;;;;;;;15.97;100.00;102524.41;5072315;28;20059;-71
2022/08/08 00:17:53;;;;;;;6.22;3.33;;;;;;;15.95;100.00;102530.53;5073614;28;20025;-71
2022/08/08 00:20:27;;;;;;;4.45;3.15;;;;;;;15.93;100.00;102526.97;5073322;28;20039;-71
2022/08/08 00:22:56;;;;;;;8.38;3.65;;;;;;;15.88;100.00;102526.84;5063084;28;20043;-71
2022/08/08 00:25:46;;;;;;;8.13;3.80;;;;;;;15.82;100.00;102516.13;5072608;28;20066;-72
2022/08/08 00:28:17;;;;;;;4.05;3.50;;;;;;;15.79;100.00;102516.91;5093650;28;20020;-71
2022/08/08 00:30:53;;;;;;;6.75;3.92;;;;;;;15.80;100.00;102520.50;5093491;28;20016;-72
2022/08/08 00:33:24;;;;;;;6.35;3.17;;;;;;;15.79;100.00;102514.25;5093782;28;20081;-71
2022/08/08 00:35:58;;;;;;;5.13;3.85;;;;;;;15.76;100.00;102514.22;5092175;28;20023;-71
2022/08/08 00:38:48;;;;;;;9.15;3.63;;;;;;;15.73;100.00;102510.56;5090639;28;20026;-71
2022/08/08 00:41:32;;;;;;;7.03;3.55;;;;;;;15.64;100.00;102513.91;5061996;28;20021;-72
2022/08/08 00:44:06;;;;;;;6.93;3.38;;;;;;;15.64;100.00;102511.25;5053252;28;20033;-71
2022/08/08 00:46:43;;;;;;;5.60;3.33;;;;;;;15.64;100.00;102506.84;5053149;28;20032;-71
2022/08/08 00:49:17;;;;;;;7.38;3.40;;;;;;;15.60;100.00;102509.38;5053087;28;20393;-72
2022/08/08 00:52:13;;;;;;;7.10;3.90;;;;;;;15.58;100.00;102505.81;5052985;28;20502;-72
2022/08/08 00:54:54;;;;;;;5.22;3.17;;;;;;;15.58;100.00;102500.50;5056686;28;20045;-72
2022/08/08 00:57:39;;;;;;;6.90;3.47;;;;;;;15.51;100.00;102502.13;5073038;28;20032;-71
2022/08/08 01:00:07;;;;;;;5.32;3.85;;;;;;;15.45;100.00;102500.25;5073447;28;20369;-71
2022/08/08 01:03:27;;;;;;;5.82;3.90;;;;;;;15.40;100.00;102499.22;5076425;28;20029;-71
2022/08/08 01:06:28;;;;;;;6.32;3.88;;;;;;;15.42;100.00;102499.25;5017662;28;20125;-71
2022/08/08 01:09:24;;;;;;;7.00;3.80;;;;;;;15.41;100.00;102503.69;5059513;28;20107;-71
2022/08/08 01:12:14;;;;;;;9.07;3.47;;;;;;;15.51;100.00;102502.13;5059550;28;20028;-71
2022/08/08 01:15:24;;;;;;;6.35;3.45;;;;;;;15.43;100.00;102496.66;5059472;28;20025;-72
2022/08/08 01:18:26;;;;;;;6.40;3.45;;;;;;;15.39;100.00;102508.03;5059422;28;20028;-71
2022/08/08 01:21:10;;;;;;;5.88;3.10;;;;;;;15.33;100.00;102505.25;5065989;28;20483;-72
2022/08/08 01:24:20;;;;;;;6.47;3.33;;;;;;;15.23;100.00;102501.47;5079394;28;20031;-70
2022/08/08 01:27:03;;;;;;;6.78;3.58;;;;;;;15.15;100.00;102498.66;5057240;28;20040;-71
2022/08/08 01:30:06;;;;;;;6.03;3.53;;;;;;;15.15;100.00;102496.00;5059503;28;20117;-72
2022/08/08 01:32:34;;;;;;;4.72;3.60;;;;;;;15.15;100.00;102496.00;5059314;28;20021;-70
2022/08/08 01:35:24;;;;;;;5.30;3.20;;;;;;;15.16;100.00;102496.91;5059347;28;20079;-72
2022/08/08 01:38:15;;;;;;;6.95;3.20;;;;;;;15.18;100.00;102501.38;5059245;28;20067;-71
2022/08/08 01:40:57;;;;;;;6.30;3.22;;;;;;;15.10;100.00;102495.00;5056113;28;20421;-71
2022/08/08 01:43:44;;;;;;;5.57;3.83;;;;;;;15.08;100.00;102494.03;5059338;28;20028;-71
2022/08/08 01:46:24;;;;;;;5.90;3.22;;;;;;;15.00;100.00;102490.31;5064873;28;20082;-71
2022/08/08 01:49:11;;;;;;;6.22;3.28;;;;;;;15.01;100.00;102489.47;5077586;28;20353;-70
2022/08/08 01:51:57;;;;;;;7.00;3.45;;;;;;;14.96;100.00;102492.00;5079177;28;20025;-72
2022/08/08 01:54:50;;;;;;;5.40;3.40;;;;;;;14.94;100.00;102490.19;5078996;28;20048;-71
2022/08/08 01:57:50;;;;;;;6.17;3.60;;;;;;;14.96;100.00;102488.44;5070259;28;20013;-71
2022/08/08 02:00:21;;;;;;;7.57;3.20;;;;;;;15.01;100.00;102497.41;5054876;28;20094;-72
2022/08/08 02:03:05;;;;;;;4.88;3.00;;;;;;;14.95;100.00;102492.88;5059145;28;20059;-72
2022/08/08 02:05:51;;;;;;;3.95;3.45;;;;;;;14.88;100.00;102496.22;5059108;28;20052;-72
2022/08/08 02:08:17;;;;;;;5.43;3.15;;;;;;;14.89;100.00;102497.09;5058964;28;20373;-71
2022/08/08 02:10:59;;;;;;;7.18;3.90;;;;;;;14.79;100.00;102491.56;5058886;28;20032;-72
2022/08/08 02:13:30;;;;;;;8.07;3.60;;;;;;;14.74;100.00;102501.16;5055706;28;20037;-71
2022/08/08 02:16:36;;;;;;;6.18;3.03;;;;;;;14.75;100.00;102499.41;5055934;28;20066;-71
2022/08/08 02:19:37;;;;;;;7.22;3.67;;;;;;;14.76;100.00;102507.41;5048091;28;20049;-70
2022/08/08 02:22:30;;;;;;;5.63;3.70;;;;;;;14.73;100.00;102511.72;5055393;28;20400;-72
2022/08/08 02:25:09;;;;;;;3.75;2.90;;;;;;;14.70;100.00;102501.03;5067743;28;20055;-72
2022/08/08 02:28:02;;;;;;;6.70;3.97;;;;;;;14.72;100.00;102504.63;5076015;28;20036;-72
2022/08/08 02:31:15;;;;;;;6.60;3.92;;;;;;;14.76;100.00;102503.84;5074470;28;20032;-72
2022/08/08 02:34:02;;;;;;;6.18;3.88;;;;;;;14.74;100.00;102501.16;5053256;28;20035;-71
2022/08/08 02:36:42;;;;;;;10.30;4.43;;;;;;;14.71;100.00;102503.72;5053448;28;20040;-71
2022/08/08 02:39:55;;;;;;;8.23;4.13;;;;;;;14.75;100.00;102510.00;5064189;28;20039;-71
2022/08/08 02:42:44;;;;;;;5.22;4.30;;;;;;;14.75;100.00;102504.72;5018386;28;20052;-71
2022/08/08 02:45:34;;;;;;;8.23;4.40;;;;;;;14.75;100.00;102505.59;5055297;28;20032;-70
2022/08/08 02:48:25;;;;;;;7.50;4.63;;;;;;;14.72;100.00;102510.81;5055183;28;20071;-72
2022/08/08 02:51:09;;;;;;;7.65;3.83;;;;;;;14.72;100.00;102513.47;5055187;28;20075;-71
2022/08/08 02:53:59;;;;;;;8.25;4.30;;;;;;;14.73;100.00;102512.63;5053879;28;20480;-71
2022/08/08 02:56:30;;;;;;;7.25;4.00;;;;;;;14.71;100.00;102502.84;5073574;28;20059;-72
2022/08/08 02:59:01;;;;;;;6.25;3.90;;;;;;;14.69;100.00;102510.75;5071835;28;20033;-71
2022/08/08 03:02:00;;;;;;;6.60;4.50;;;;;;;14.65;100.00;102514.19;5066091;28;20062;-71
2022/08/08 03:04:35;;;;;;;7.75;4.35;;;;;;;14.64;100.00;102515.91;5073665;28;20031;-70
2022/08/08 03:07:18;;;;;;;5.68;4.57;;;;;;;14.61;100.00;102518.47;5074867;28;20082;-71
2022/08/08 03:10:21;;;;;;;9.10;4.40;;;;;;;14.62;100.00;102520.25;5074788;28;20029;-71
2022/08/08 03:12:55;;;;;;;9.27;5.25;;;;;;;14.61;100.00;102518.47;5074782;28;20032;-72
2022/08/08 03:15:32;;;;;;;7.15;4.30;;;;;;;14.60;100.00;102524.59;5074712;28;20025;-72
2022/08/08 03:18:30;;;;;;;6.10;4.88;;;;;;;14.58;100.00;102522.75;5074720;28;20494;-73
2022/08/08 03:20:55;;;;;;;8.73;4.95;;;;;;;14.54;100.00;102526.19;5054519;28;20388;-71
2022/08/08 03:23:21;;;;;;;8.17;4.43;;;;;;;14.49;100.00;102529.63;5054113;28;20033;-71
2022/08/08 03:25:48;;;;;;;6.07;4.70;;;;;;;14.43;100.00;102524.16;5079826;28;20273;-71
2022/08/08 03:28:28;;;;;;;6.50;4.10;;;;;;;14.42;100.00;102530.31;5094735;28;20097;-72
2022/08/08 03:30:53;;;;;;;5.25;4.22;;;;;;;14.40;100.00;102518.75;5094926;28;20102;-71
2022/08/08 03:33:19;;;;;;;7.72;4.20;;;;;;;14.37;100.00;102526.63;5094501;28;20027;-71
2022/08/08 03:35:46;;;;;;;8.27;4.53;;;;;;;14.37;100.00;102526.63;5093460;28;20379;-71
2022/08/08 03:38:13;;;;;;;8.88;5.00;;;;;;;14.38;100.00;102531.06;5094339;28;20471;-71
2022/08/08 03:40:39;;;;;;;7.80;5.53;;;;;;;14.39;100.00;102531.97;5094408;28;20024;-72
2022/08/08 03:43:09;;;;;;;8.15;5.07;;;;;;;14.39;100.00;102527.59;5094492;28;20101;-72
2022/08/08 03:45:35;;;;;;;9.93;5.88;;;;;;;14.36;100.00;102538.06;5075794;28;20025;-71
2022/08/08 03:48:04;;;;;;;8.27;5.13;;;;;;;14.38;100.00;102532.81;5059279;28;20112;-72
2022/08/08 03:50:31;;;;;;;9.77;5.57;;;;;;;14.36;100.00;102532.78;5053979;28;20025;-71
2022/08/08 03:53:11;;;;;;;7.93;5.68;;;;;;;14.36;100.00;102532.78;5053925;28;20083;-71
2022/08/08 03:55:39;;;;;;;8.43;5.18;;;;;;;14.33;100.00;102527.41;5065638;28;20044;-71
2022/08/08 03:58:05;;;;;;;7.38;5.22;;;;;;;14.31;100.00;102530.00;5073940;28;20028;-71
2022/08/08 04:00:30;;;;;;;10.25;6.30;;;;;;;14.33;100.00;102532.69;5073824;28;20031;-71
2022/08/08 04:02:58;;;;;;;8.48;4.72;;;;;;;14.29;100.00;102531.69;5065920;28;20029;-71
2022/08/08 04:05:28;;;;;;;6.97;5.32;;;;;;;14.25;100.00;102537.75;5069844;28;20082;-72
2022/08/08 04:07:54;;;;;;;12.27;4.82;;;;;;;14.22;100.00;102539.44;5073806;28;20033;-71
2022/08/08 04:10:19;;;;;;;6.18;5.00;;;;;;;14.20;100.00;102535.84;5073543;28;20025;-72
2022/08/08 04:12:44;;;;;;;8.35;4.40;;;;;;;14.20;100.00;102538.50;5073625;28;20028;-72
2022/08/08 04:15:10;;;;;;;7.18;4.28;;;;;;;14.20;100.00;102543.78;5073574;28;20029;-72
2022/08/08 04:17:36;;;;;;;8.82;4.57;;;;;;;14.19;100.00;102541.97;5073489;28;20024;-71
2022/08/08 04:20:01;;;;;;;9.45;5.47;;;;;;;14.19;100.00;102547.28;5073280;28;20380;-72
2022/08/08 04:22:27;;;;;;;5.47;4.28;;;;;;;14.21;100.00;102548.22;5072176;28;20044;-71
2022/08/08 04:24:53;;;;;;;9.82;5.07;;;;;;;14.26;100.00;102554.56;5078782;28;20024;-72
2022/08/08 04:27:19;;;;;;;7.13;4.47;;;;;;;14.28;100.00;102555.50;5070638;28;20021;-71
2022/08/08 04:29:45;;;;;;;7.97;4.70;;;;;;;14.30;100.00;102559.09;5070112;28;20066;-71
2022/08/08 04:32:13;;;;;;;12.70;5.25;;;;;;;14.33;100.00;102561.81;5070518;28;20025;-71
2022/08/08 04:34:39;;;;;;;11.80;6.55;;;;;;;14.36;100.00;102567.19;5064185;28;20028;-71
2022/08/08 04:37:05;;;;;;;11.73;6.43;;;;;;;14.38;100.00;102568.16;5073069;28;20055;-70
2022/08/08 04:39:30;;;;;;;11.02;6.80;;;;;;;14.41;100.00;102568.22;5073129;28;20480;-71
2022/08/08 04:41:56;;;;;;;10.35;6.32;;;;;;;14.43;100.00;102569.19;5073287;28;20103;-71
2022/08/08 04:44:21;;;;;;;9.75;6.85;;;;;;;14.42;100.00;102577.97;5073354;28;20357;-71
2022/08/08 04:46:47;;;;;;;9.23;6.70;;;;;;;14.44;100.00;102576.25;5073233;28;20499;-71
2022/08/08 04:49:12;;;;;;;11.90;6.55;;;;;;;14.46;100.00;102576.28;5073147;28;20108;-71
2022/08/08 04:51:37;;;;;;;10.65;7.47;;;;;;;14.50;100.00;102571.16;5073195;28;20031;-71
2022/08/08 04:54:03;;;;;;;9.85;6.05;;;;;;;14.50;100.00;102579.09;5072892;28;20107;-72
2022/08/08 04:56:28;;;;;;;11.25;7.55;;;;;;;14.51;100.00;102582.63;5073093;28;20111;-72
2022/08/08 04:58:54;;;;;;;9.57;6.68;;;;;;;14.54;100.00;102579.16;5071092;28;20032;-72
2022/08/08 05:01:19;;;;;;;10.70;7.20;;;;;;;14.56;100.00;102577.47;5063095;28;20456;-72
2022/08/08 05:03:44;;;;;;;13.93;6.70;;;;;;;14.60;100.00;102574.06;5073002;28;20472;-71
2022/08/08 05:06:10;;;;;;;10.48;7.38;;;;;;;14.64;100.00;102575.97;5073067;28;20025;-71
2022/08/08 05:08:35;;;;;;;12.68;7.65;;;;;;;14.69;100.00;102578.72;5072949;28;20027;-71
2022/08/08 05:11:00;;;;;;;15.98;7.38;;;;;;;14.73;100.00;102570.00;5072963;28;20107;-72
2022/08/08 05:13:26;;;;;;;12.30;7.32;;;;;;;14.72;100.00;102574.44;5072849;28;20032;-71
2022/08/08 05:15:51;;;;;;;9.00;6.55;;;;;;;14.74;100.00;102577.09;5072926;28;20031;-70
2022/08/08 05:18:16;;;;;;;16.63;7.22;;;;;;;14.74;100.00;102583.28;5071464;28;20086;-71
2022/08/08 05:20:42;;;;;;;10.85;6.63;;;;;;;14.78;100.00;102585.19;5072867;28;20052;-71
2022/08/08 05:23:07;;;;;;;10.52;6.82;;;;;;;14.81;100.00;102587.94;5072825;28;20163;-71
2022/08/08 05:25:33;;;;;;;9.68;7.00;;;;;;;14.86;100.00;102587.16;5083786;28;20028;-71
2022/08/08 05:27:59;;;;;;;10.15;6.93;;;;;;;14.94;100.00;102582.94;5093077;28;20024;-71
2022/08/08 05:30:24;;;;;;;16.33;7.38;;;;;;;15.00;100.00;102569.84;5080401;28;20031;-72
2022/08/08 05:32:49;;;;;;;11.20;6.97;;;;;;;15.08;100.00;102581.53;5064090;28;20027;-72
2022/08/08 05:35:17;;;;;;;11.82;7.07;;;;;;;15.11;100.00;102591.34;5071407;28;20032;-71
2022/08/08 05:37:51;;;;;;;17.20;7.50;;;;;;;15.17;100.00;102588.84;5072675;28;20021;-71
2022/08/08 05:40:16;;;;;;;14.48;6.82;;;;;;;15.27;100.00;102584.66;5072571;28;20373;-71
2022/08/08 05:42:44;;;;;;;15.95;6.63;;;;;;;15.34;100.00;102589.25;5072632;28;20021;-73
2022/08/08 05:45:14;;;;;;;13.68;7.07;;;;;;;15.44;100.00;102588.63;5072596;28;20095;-72
2022/08/08 05:47:41;;;;;;;11.50;7.43;;;;;;;15.52;100.00;102595.03;5073708;28;20024;-71
2022/08/08 05:50:07;;;;;;;11.82;7.70;;;;;;;15.58;100.00;102601.34;5074041;28;20028;-71
2022/08/08 05:52:34;;;;;;;21.17;7.57;;;;;;;15.62;100.00;102592.59;5067053;28;20024;-72
2022/08/08 05:55:02;;;;;;;11.35;6.90;;;;;;;15.68;100.00;102592.72;5076175;28;20044;-72
2022/08/08 05:57:28;;;;;;;17.70;6.57;;;;;;;15.72;100.00;102596.38;5073124;28;20044;-72
2022/08/08 05:59:57;;;;;;;12.18;6.65;;;;;;;15.77;100.00;102592.94;5067142;28;20028;-71
2022/08/08 06:05:11;;;;;;;13.57;7.20;;;;;;;15.94;100.00;102595.13;5076264;28;20034;-71
2022/08/08 06:07:39;;;;;;;13.52;6.45;;;;;;;15.99;100.00;102593.47;5075921;28;20025;-72
2022/08/08 06:10:07;;;;;;;11.63;6.13;;;;;;;16.06;100.00;102600.72;5076062;28;20529;-70
2022/08/08 06:12:33;;;;;;;10.60;5.78;;;;;;;16.13;100.00;102605.31;5075896;28;20388;-72
2022/08/08 06:15:04;;;;;;;16.85;6.72;;;;;;;16.19;100.00;102608.06;5074772;28;20028;-72
2022/08/08 06:17:35;;;;;;;16.83;7.43;;;;;;;16.23;100.00;102603.72;5075862;28;20021;-73
2022/08/08 06:20:03;;;;;;;15.73;6.90;;;;;;;16.29;100.00;102614.50;5075674;28;20020;-73
2022/08/08 06:22:29;;;;;;;19.17;6.93;;;;;;;16.31;100.00;102615.41;5075802;28;20032;-72
2022/08/08 06:24:54;;;;;;;11.27;6.35;;;;;;;16.37;100.00;102617.31;5074447;28;20429;-72
2022/08/08 06:27:45;;;;;;;18.25;6.13;;;;;;;16.44;100.00;102621.91;5064240;28;20024;-72
2022/08/08 06:30:12;;;;;;;11.98;6.43;;;;;;;16.51;100.00;102609.63;5055729;28;20400;-72
2022/08/08 06:32:46;;;;;;;16.05;6.35;;;;;;;16.59;100.00;102613.34;5056994;28;20656;-71
2022/08/08 06:35:14;;;;;;;14.90;6.40;;;;;;;16.55;100.00;102621.22;5063449;28;20411;-71
2022/08/08 06:37:51;;;;;;;12.68;6.30;;;;;;;16.61;100.00;102624.88;5037751;28;20055;-71
2022/08/08 06:40:17;;;;;;;12.55;6.20;;;;;;;16.64;100.00;102621.41;5055706;28;20492;-72
2022/08/08 06:42:49;;;;;;;13.20;6.57;;;;;;;16.71;100.00;102617.97;5055423;28;20048;-72
2022/08/08 06:45:15;;;;;;;13.50;6.97;;;;;;;16.79;100.00;102621.72;5054193;28;20127;-72
2022/08/08 06:47:40;;;;;;;8.98;6.45;;;;;;;16.88;100.00;102620.09;5055429;28;20492;-72
2022/08/08 06:50:06;;;;;;;14.85;6.97;;;;;;;16.95;100.00;102624.69;5055242;28;20025;-72
2022/08/08 06:52:33;;;;;;;11.07;6.40;;;;;;;16.98;100.00;102628.31;5055229;28;20025;-72
2022/08/08 06:55:04;;;;;;;14.18;5.82;;;;;;;17.07;100.00;102626.69;5061637;28;20041;-72
2022/08/08 06:57:29;;;;;;;8.35;5.65;;;;;;;17.10;100.00;102626.72;5075275;28;20420;-72
2022/08/08 06:59:55;;;;;;;9.70;5.50;;;;;;;17.17;100.00;102617.97;5074759;28;20100;-72
2022/08/08 07:02:27;;;;;;;16.80;6.53;;;;;;;17.23;100.00;102622.50;5074082;28;20108;-72
2022/08/08 07:05:03;;;;;;;13.63;7.25;;;;;;;17.28;100.00;102627.06;5064237;28;20537;-72
2022/08/08 07:07:50;;;;;;;9.05;5.45;;;;;;;17.34;100.00;102626.28;5075019;28;20032;-73
2022/08/08 07:10:20;;;;;;;15.88;6.35;;;;;;;17.38;100.00;102633.44;5074840;28;20028;-72
2022/08/08 07:12:57;;;;;;;9.48;4.90;;;;;;;17.47;100.00;102633.59;5074918;28;20099;-71
2022/08/08 07:15:56;;;;;;;9.73;5.28;;;;;;;17.56;100.00;102631.97;5062704;28;20112;-72
2022/08/08 07:19:04;;;;;;;23.33;5.30;;;;;;;17.65;100.00;102637.44;5074716;28;20024;-72
2022/08/08 07:21:54;;;;;;;17.73;4.80;;;;;;;17.74;100.00;102642.88;5064007;28;20069;-71
2022/08/08 07:24:33;;;;;;;6.63;3.33;;;;;;;17.87;100.00;102638.66;5075483;28;20052;-71
2022/08/08 07:26:59;;;;;;;7.68;3.85;;;;;;;17.93;100.00;102643.19;5094844;28;20031;-71
2022/08/08 07:29:25;;;;;;;9.65;3.63;;;;;;;18.00;100.00;102639.75;5094637;28;20077;-71
2022/08/08 07:31:50;;;;;;;5.50;2.95;;;;;;;18.05;100.00;102646.03;5094771;28;20540;-71
2022/08/08 07:34:17;;;;;;;8.48;2.83;;;;;;;18.16;100.00;102643.53;5094563;28;20468;-72
2022/08/08 07:36:43;;;;;;;8.23;3.13;;;;;;;18.29;100.00;102641.94;5094638;28;20027;-72
2022/08/08 07:39:09;;;;;;;6.97;2.58;;;;;;;18.45;100.00;102649.25;5094425;28;20456;-71
2022/08/08 07:41:37;;;;;;;9.15;2.47;;;;;;;18.56;100.00;102651.16;5094634;28;20490;-72
2022/08/08 07:44:04;;;;;;;8.82;3.38;;;;;;;18.60;100.00;102647.63;5094371;28;20023;-72
2022/08/08 07:46:30;;;;;;;9.48;3.05;;;;;;;18.74;100.00;102640.72;5094666;28;20487;-73
2022/08/08 07:48:55;;;;;;;6.85;2.30;;;;;;;18.85;100.00;102648.84;5093800;28;20012;-73
2022/08/08 07:51:21;;;;;;;9.82;2.15;;;;;;;18.98;100.00;102649.91;5062188;28;20024;-72
2022/08/08 07:54:27;;;;;;;6.35;2.72;;;;;;;19.15;100.00;102653.66;5074137;28;20020;-72
2022/08/08 07:57:20;;;;;;;7.50;2.35;;;;;;;19.29;100.00;102651.09;5054090;28;20091;-72
2022/08/08 08:00:01;;;;;;;12.18;3.55;;;;;;;19.37;100.00;102656.50;5052733;28;20489;-72
2022/08/08 08:02:43;;;;;;;8.30;3.10;;;;;;;19.35;100.00;102658.25;5053867;28;20028;-71
2022/08/08 08:05:22;;;;;;;12.30;3.70;;;;;;;19.59;100.00;102659.34;5053833;28;20143;-71
2022/08/08 08:07:59;;;;;;;9.23;3.33;;;;;;;19.69;100.00;102661.22;5053739;28;20032;-71
2022/08/08 08:10:27;;;;;;;7.22;2.38;;;;;;;19.86;100.00;102664.94;5058538;28;20461;-71
2022/08/08 08:13:19;;;;;;;7.55;2.38;;;;;;;20.07;100.00;102663.28;5053768;28;20384;-70
2022/08/08 08:16:01;;;;;;;10.93;3.20;;;;;;;19.93;100.00;102667.66;5052636;28;20028;-72
2022/08/08 08:18:46;;;;;;;6.57;3.13;;;;;;;19.80;100.00;102670.22;5053573;28;20028;-72
2022/08/08 08:21:15;;;;;;;8.20;2.92;;;;;;;19.80;100.00;102670.22;5053574;28;20485;-71
2022/08/08 08:23:40;;;;;;;3.42;2.90;;;;;;;19.87;100.00;102672.09;5063099;28;20020;-71
2022/08/08 08:26:05;;;;;;;8.70;2.97;;;;;;;20.05;100.00;102675.75;5086598;28;20030;-71
2022/08/08 08:28:31;;;;;;;8.25;3.58;;;;;;;20.20;100.00;102675.84;5093639;28;20106;-72
2022/08/08 08:31:01;;;;;;;4.72;2.90;;;;;;;20.28;100.00;102675.91;5093878;28;20138;-72
2022/08/08 08:33:27;;;;;;;4.53;2.92;;;;;;;20.31;100.00;102680.38;5093665;28;20020;-71
2022/08/08 08:35:52;;;;;;;6.97;3.10;;;;;;;20.29;100.00;102679.44;5063510;28;20024;-71
2022/08/08 08:38:17;;;;;;;6.70;3.55;;;;;;;20.33;100.00;102681.25;5073221;28;20159;-72
2022/08/08 08:40:43;;;;;;;8.75;3.40;;;;;;;20.32;100.00;102682.13;5073350;28;20028;-72
2022/08/08 08:43:09;;;;;;;6.15;2.85;;;;;;;20.31;100.00;102683.94;5073166;28;20024;-71
2022/08/08 08:45:36;;;;;;;6.15;2.97;;;;;;;20.32;100.00;102691.06;5073308;28;20028;-72
2022/08/08 08:48:02;;;;;;;6.25;3.13;;;;;;;20.25;100.00;102683.00;5073220;28;20029;-72
2022/08/08 08:50:28;;;;;;;5.15;2.58;;;;;;;20.12;100.00;102687.38;5073317;28;20079;-72
2022/08/08 08:52:56;;;;;;;4.70;2.08;;;;;;;20.11;100.00;102688.25;5073059;28;20024;-72
2022/08/08 08:55:23;;;;;;;6.35;1.67;;;;;;;20.04;100.00;102695.34;5072876;28;20079;-72
2022/08/08 08:57:52;;;;;;;4.78;1.75;;;;;;;19.96;100.00;102692.63;5073105;28;20028;-70
2022/08/08 09:00:18;;;;;;;4.75;1.38;;;;;;;19.93;100.00;102694.38;5069495;28;20039;-71
2022/08/08 09:02:45;;;;;;;5.03;1.60;;;;;;;19.80;100.00;102691.59;5061734;28;20021;-71
2022/08/08 09:05:12;;;;;;;8.07;2.15;;;;;;;19.78;100.00;102687.09;5052921;28;20465;-72
2022/08/08 09:07:40;;;;;;;5.43;2.22;;;;;;;19.79;100.00;102689.81;5052875;28;20028;-71
2022/08/08 09:10:07;;;;;;;2.92;1.52;;;;;;;19.78;100.00;102692.44;5053097;28;20063;-72
2022/08/08 09:12:34;;;;;;;4.55;1.73;;;;;;;19.75;100.00;102688.00;5053034;28;20092;-71
2022/08/08 09:15:00;;;;;;;3.92;1.85;;;;;;;19.79;100.00;102694.22;5052699;28;20024;-73
2022/08/08 09:17:26;;;;;;;2.17;1.70;;;;;;;19.80;100.00;102688.94;5052885;28;20029;-71
2022/08/08 09:19:55;;;;;;;7.30;1.58;;;;;;;19.78;100.00;102688.00;5052652;28;20396;-71
2022/08/08 09:22:21;;;;;;;3.92;1.42;;;;;;;19.83;100.00;102690.72;5065384;28;20031;-70
2022/08/08 09:24:49;;;;;;;5.97;2.00;;;;;;;19.81;100.00;102698.75;5065968;28;20016;-71
2022/08/08 09:27:15;;;;;;;6.10;1.58;;;;;;;19.80;100.00;102693.34;5097040;28;20084;-72
2022/08/08 09:29:53;;;;;;;4.05;1.30;;;;;;;19.99;100.00;102697.09;5097129;28;20023;-72
2022/08/08 09:32:36;;;;;;;3.92;1.67;;;;;;;20.34;100.00;102693.75;5095795;28;20483;-72
2022/08/08 09:35:05;;;;;;;7.38;1.60;;;;;;;20.67;100.00;102694.78;5068112;28;20369;-72
2022/08/08 09:37:45;;;;;;;1.98;1.10;;;;;;;21.00;100.00;102695.84;5056975;28;20059;-73
2022/08/08 09:40:13;;;;;;;1.80;1.10;;;;;;;21.17;100.00;102698.53;5056707;28;20036;-72
2022/08/08 09:42:42;;;;;;;1.60;0.90;;;;;;;21.21;100.00;102700.31;5056566;28;20029;-70
2022/08/08 09:45:30;;;;;;;1.77;0.88;;;;;;;21.22;100.00;102692.28;5056520;28;20020;-70
2022/08/08 09:48:00;;;;;;;4.55;1.10;;;;;;;21.00;100.00;102695.84;5056536;28;20071;-73
2022/08/08 09:50:26;;;;;;;2.15;1.00;;;;;;;21.19;100.00;102699.44;5056532;28;20032;-71
2022/08/08 09:52:53;;;;;;;4.25;1.33;;;;;;;21.30;100.00;102704.81;5056412;28;20031;-71
2022/08/08 09:55:21;;;;;;;3.10;1.52;;;;;;;21.25;100.00;102703.91;5062055;28;20419;-72
2022/08/08 09:57:49;;;;;;;3.08;1.30;;;;;;;21.30;100.00;102710.19;5067317;28;20035;-71
2022/08/08 10:00:18;;;;;;;1.67;1.15;;;;;;;21.31;100.00;102703.91;5076036;28;20024;-71
2022/08/08 10:02:45;;;;;;;2.60;1.27;;;;;;;21.29;100.00;102705.72;5076127;28;20365;-72
2022/08/08 10:05:18;;;;;;;3.85;1.08;;;;;;;21.50;100.00;102696.78;5076062;28;20034;-71
2022/08/08 10:07:52;;;;;;;6.63;1.45;;;;;;;21.84;99.84;102697.72;5075913;28;20041;-71
2022/08/08 10:10:38;;;;;;;1.50;1.00;;;;;;;22.03;100.00;102686.94;5076056;28;20480;-72
2022/08/08 10:13:17;;;;;;;8.35;1.42;;;;;;;22.37;100.00;102698.53;5075041;28;20043;-71
2022/08/08 10:15:51;;;;;;;3.13;1.60;;;;;;;22.49;95.13;102689.56;5066353;28;20024;-72
2022/08/08 10:18:30;;;;;;;1.48;1.30;;;;;;;22.68;96.05;102694.84;5075854;28;20036;-72
2022/08/08 10:21:03;;;;;;;6.05;1.60;;;;;;;22.94;95.31;102694.72;5075897;28;20120;-72
2022/08/08 10:23:47;;;;;;;3.15;1.23;;;;;;;23.09;92.38;102683.00;5074489;28;20031;-72
2022/08/08 10:26:29;;;;;;;4.10;1.35;;;;;;;23.39;91.91;102689.09;5092376;28;20111;-72
2022/08/08 10:29:05;;;;;;;3.80;1.70;;;;;;;23.57;87.72;102686.22;5095959;28;20013;-72
2022/08/08 10:34:18;;;;;;;1.63;1.02;;;;;;;24.02;86.98;102683.19;5095565;28;20392;-71
2022/08/08 10:36:44;;;;;;;1.63;1.05;;;;;;;24.26;83.19;102691.00;5095793;28;20120;-71
2022/08/08 10:39:16;;;;;;;2.60;1.63;;;;;;;24.46;81.05;102690.72;5095604;28;20027;-72
2022/08/08 10:41:44;;;;;;;3.75;0.98;;;;;;;24.57;80.58;102691.50;5094927;28;20024;-72
2022/08/08 10:44:10;;;;;;;3.90;0.90;;;;;;;24.51;78.95;102696.97;5095762;28;20490;-73
2022/08/08 10:46:36;;;;;;;2.65;0.60;;;;;;;24.32;77.71;102701.66;5095719;28;20103;-72
2022/08/08 10:49:01;;;;;;;4.88;1.10;;;;;;;24.20;79.61;102691.94;5089461;28;20107;-72
2022/08/08 10:51:35;;;;;;;2.25;0.70;;;;;;;24.29;77.32;102696.34;5065711;28;20116;-73
2022/08/08 10:54:00;;;;;;;2.53;0.80;;;;;;;24.50;76.80;102689.78;5075176;28;20029;-72
2022/08/08 10:56:32;;;;;;;4.10;0.80;;;;;;;24.52;74.05;102687.97;5063862;28;20017;-72
2022/08/08 10:59:06;;;;;;;1.50;0.80;;;;;;;24.45;74.61;102687.16;5070821;28;20029;-72
2022/08/08 11:01:32;;;;;;;1.35;0.63;;;;;;;24.38;72.77;102690.84;5055204;28;20028;-71
2022/08/08 11:03:59;;;;;;;1.23;0.60;;;;;;;24.27;73.14;102688.28;5054917;28;20214;-71
2022/08/08 11:06:28;;;;;;;3.35;1.08;;;;;;;23.95;73.91;102686.81;5055231;28;20474;-72
2022/08/08 11:09:06;;;;;;;1.70;0.82;;;;;;;23.81;75.06;102684.25;5054915;28;20033;-72
2022/08/08 11:11:38;;;;;;;4.72;0.95;;;;;;;23.67;76.88;102687.06;5054983;28;20029;-72
2022/08/08 11:14:05;;;;;;;2.88;0.82;;;;;;;23.56;80.46;102679.09;5054957;28;20079;-72
2022/08/08 11:16:33;;;;;;;1.23;0.80;;;;;;;23.93;78.91;102675.19;5055643;28;20029;-73
2022/08/08 11:19:01;;;;;;;1.77;0.70;;;;;;;24.39;76.92;102676.47;5054634;28;20112;-73
2022/08/08 11:21:40;;;;;;;3.40;0.77;;;;;;;24.87;74.10;102674.06;5054731;28;20028;-72
2022/08/08 11:24:07;;;;;;;2.92;1.40;;;;;;;25.29;73.21;102669.88;5054614;28;20029;-72
2022/08/08 11:26:35;;;;;;;3.28;0.73;;;;;;;25.59;72.11;102674.75;5084312;28;20025;-72
2022/08/08 11:29:02;;;;;;;4.00;0.88;;;;;;;25.77;67.49;102667.25;5065706;28;20028;-72
2022/08/08 11:31:35;;;;;;;2.70;0.95;;;;;;;25.74;68.38;102680.81;5074498;28;20024;-72
2022/08/08 11:34:02;;;;;;;;;;;;;;;26.21;66.36;102672.78;5074866;28;20495;-71
2022/08/08 11:36:28;;;;;;;3.53;0.60;;;;;;;26.55;66.23;102672.06;5074455;28;20344;-70
2022/08/08 11:38:55;;;;;;;1.35;0.73;;;;;;;26.93;61.63;102673.94;5074380;28;20066;-71
2022/08/08 11:41:21;;;;;;;1.40;0.75;;;;;;;27.32;61.72;102669.41;5074372;28;20089;-72
2022/08/08 11:43:47;;;;;;;2.90;0.95;;;;;;;27.76;61.90;102664.72;5074380;28;20024;-71
2022/08/08 11:46:14;;;;;;;3.17;0.88;;;;;;;27.86;59.51;102673.47;5068927;28;20024;-72
2022/08/08 11:48:40;;;;;;;5.00;1.00;;;;;;;28.14;56.67;102670.91;5066469;28;20060;-71
2022/08/08 11:51:07;;;;;;;3.10;0.95;;;;;;;27.66;58.44;102668.59;5073995;28;20025;-72
2022/08/08 11:53:33;;;;;;;4.63;1.13;;;;;;;27.11;59.93;102671.72;5074050;28;20094;-71